Wetterdaten: Februar 2009
Datum Temp Feuchte Luftdruck Regen Wind Richtung Sonnenschein UV Solar Windben
01.02.2009 -3,8 C 84 % 1012,3 hPa 0,2 l/m 6,3 km/h N-NO 0,67 h 0,0 UV-I 71 W/m 18,5 km/h
02.02.2009 0,5 C 87 % 1003,5 hPa 0,0 l/m 15,6 km/h SO 1,00 h 0,6 UV-I 105 W/m 32,2 km/h
03.02.2009 -0,3 C 91 % 999,8 hPa 0,0 l/m 3,3 km/h S 4,67 h 0,7 UV-I 149 W/m 5,6 km/h
04.02.2009 1,0 C 95 % 998,0 hPa 0,2 l/m 2,8 km/h S 0,00 h 0,0 UV-I 37 W/m 3,2 km/h
05.02.2009 2,8 C 92 % 995,9 hPa 0,0 l/m 11,4 km/h S 0,33 h 0,5 UV-I 60 W/m 17,3 km/h
06.02.2009 2,5 C 93 % 992,4 hPa 0,0 l/m 4,0 km/h S 4,50 h 0,7 UV-I 160 W/m 6,9 km/h
07.02.2009 1,1 C 97 % 990,7 hPa 4,2 l/m 2,9 km/h NW 0,00 h 0,0 UV-I 36 W/m 9,7 km/h
08.02.2009 0,0 C 94 % 1003,4 hPa 0,2 l/m 4,8 km/h S-SW 1,08 h 0,6 UV-I 101 W/m 15,3 km/h
09.02.2009 -0,2 C 94 % 1002,9 hPa 0,4 l/m 14,5 km/h S-SO 0,00 h 0,0 UV-I 31 W/m 19,7 km/h
10.02.2009 1,3 C 98 % 990,3 hPa 18,4 l/m 13,4 km/h S-SO 0,00 h 0,6 UV-I 55 W/m 28,9 km/h
11.02.2009 0,0 C 97 % 1010,5 hPa 1,4 l/m 6,9 km/h N-NW 0,68 h 0,8 UV-I 104 W/m 15,7 km/h
12.02.2009 -1,2 C 96 % 1017,5 hPa 1,4 l/m 3,7 km/h NW 0,83 h 0,7 UV-I 102 W/m 10,9 km/h
13.02.2009 -0,8 C 98 % 1017,6 hPa 1,6 l/m 1,5 km/h NW 0,00 h 0,6 UV-I 82 W/m 6,0 km/h
14.02.2009 -6,4 C 93 % 1027,2 hPa 0,2 l/m 0,0 km/h N 0,08 h 0,0 UV-I 30 W/m 0,0 km/h
15.02.2009 -2,2 C 95 % 1025,3 hPa 0,0 l/m 2,8 km/h SW 0,00 h 0,0 UV-I 40 W/m 7,3 km/h
16.02.2009 1,9 C 98 % 1018,5 hPa 21,4 l/m 5,3 km/h W 0,00 h 0,5 UV-I 35 W/m 13,3 km/h
17.02.2009 -2,8 C 90 % 1022,5 hPa 8,6 l/m 3,7 km/h N-NO 3,50 h 0,9 UV-I 159 W/m 7,6 km/h
18.02.2009 -5,1 C 81 % 1028,0 hPa 0,6 l/m 1,4 km/h S 6,67 h 1,0 UV-I 249 W/m 2,8 km/h
19.02.2009 -1,8 C 86 % 1026,1 hPa 0,2 l/m 4,9 km/h W-SW 5,00 h 1,0 UV-I 212 W/m 13,3 km/h
20.02.2009 1,7 C 98 % 1026,2 hPa 8,8 l/m 5,8 km/h NW 0,00 h 0,6 UV-I 51 W/m 12,5 km/h
21.02.2009 1,5 C 98 % 1029,2 hPa 3,8 l/m 4,2 km/h NW 0,00 h 0,7 UV-I 97 W/m 10,1 km/h
22.02.2009 3,3 C 99 % 1018,5 hPa 7,0 l/m 10,1 km/h W 0,00 h 0,6 UV-I 37 W/m 20,1 km/h
23.02.2009 2,3 C 98 % 1016,2 hPa 5,6 l/m 12,1 km/h N-NW 0,08 h 0,7 UV-I 60 W/m 25,4 km/h
24.02.2009 1,1 C 92 % 1026,3 hPa 0,0 l/m 3,8 km/h N-NW 1,83 h 0,9 UV-I 150 W/m 7,3 km/h
25.02.2009 3,2 C 91 % 1026,3 hPa 1,4 l/m 5,6 km/h SW 1,75 h 0,9 UV-I 143 W/m 14,9 km/h
26.02.2009 4,5 C 93 % 1016,2 hPa 4,4 l/m 18,5 km/h W 0,75 h 0,7 UV-I 107 W/m 35,4 km/h
27.02.2009 5,3 C 99 % 1016,3 hPa 13,6 l/m 11,7 km/h W-NW 0,00 h 0,0 UV-I 23 W/m 28,2 km/h
28.02.2009 6,6 C 99 % 1014,3 hPa 6,8 l/m 3,0 km/h W-SW 0,00 h 0,5 UV-I 37 W/m 6,8 km/h
Min-Datum 15.02.09 18.02.09 10.02.09 22 Tage 03.02.09 - - - - 03.02.09
Min-Zeit 04:45 15:15 10:10 - 15:20 - - - - 15:20
Minimum -11,9 C 58 % 981,9 hPa - 0,0 km/h - - - - 0,0 km/h
Max-Datum 06.02.09 27.02.09 21.02.09 16.02.09 02.02.09 - 18.02.09 24.02.09 24.02.09 02.02.09
Max-Zeit 13:25 14:40 11:25 20:05 06:40 - 16:20 12:20 12:05 10:39
Maximum 7,7 C 100 % 1030,7 hPa 21,4 l/m 32,2 km/h
SO
- 6,58 h 1,6 UV-I 663 W/m 54,7 km/h
SO
Durchschnitt 0,6 C 94 % 1013,3 hPa #110,4 l/m 6,6 km/h NW #33:26 h 0,7 UV-I 90 W/m 14,1 km/h

Durchschnitt Minimum Temp.-2,2 C
Durchschnitt Maximum Temp.3,0 C